Time;durP1;ratioP1;P1;durP2;ratioP2;P2;SDS_P1;SDS_P2;PMS_P1;PMS_P2;Temp;Humidity;BMP_temperature;BMP_pressure;BME280_temperature;BME280_humidity;BME280_pressure;Samples;Min_cycle;Max_cycle;Signal;HPM_P1;HPM_P2
2021/09/16 00:01:24;;;;;;;;;;;16.30;97.10;;;;;;5015560;28;20335;-69
2021/09/16 00:03:49;;;;;;;;;;;16.30;97.20;;;;;;5014984;28;20004;-66
2021/09/16 00:06:15;;;;;;;;;;;16.30;97.20;;;;;;5015612;28;19980;-68
2021/09/16 00:08:41;;;;;;;;;;;16.30;97.20;;;;;;5015091;28;20416;-71
2021/09/16 00:11:06;;;;;;;;;;;16.20;97.20;;;;;;5015747;28;19967;-72
2021/09/16 00:13:32;;;;;;;;;;;16.20;97.20;;;;;;5017970;28;19918;-75
2021/09/16 00:15:57;;;;;;;;;;;16.30;97.30;;;;;;5016717;28;20282;-66
2021/09/16 00:18:23;;;;;;;;;;;16.30;97.30;;;;;;5014956;28;19917;-73
2021/09/16 00:20:49;;;;;;;;;;;16.30;97.30;;;;;;5017856;28;19918;-65
2021/09/16 00:23:14;;;;;;;;;;;16.30;97.40;;;;;;4998546;28;19925;-66
2021/09/16 00:25:40;;;;;;;;;;;16.30;97.40;;;;;;5015662;28;19917;-65
2021/09/16 00:28:07;;;;;;;;;;;16.30;97.40;;;;;;5015246;28;21297;-65
2021/09/16 00:30:33;;;;;;;;;;;16.30;97.40;;;;;;5015995;28;20417;-66
2021/09/16 00:32:58;;;;;;;;;;;16.30;97.40;;;;;;5015958;28;19948;-67
2021/09/16 00:35:24;;;;;;;;;;;16.40;97.40;;;;;;5015360;28;20369;-68
2021/09/16 00:37:49;;;;;;;;;;;16.30;97.40;;;;;;5013758;28;19918;-66
2021/09/16 00:40:15;;;;;;;;;;;16.40;97.40;;;;;;5012568;28;19921;-66
2021/09/16 00:42:42;;;;;;;;;;;16.40;97.30;;;;;;5012825;28;19928;-67
2021/09/16 00:45:08;;;;;;;;;;;16.40;97.30;;;;;;5012325;28;19918;-64
2021/09/16 00:47:34;;;;;;;;;;;16.40;97.30;;;;;;5012463;28;20004;-66
2021/09/16 00:49:59;;;;;;;;;;;16.40;97.30;;;;;;5013601;28;19918;-65
2021/09/16 00:52:25;;;;;;;;;;;16.40;97.40;;;;;;5013102;28;19918;-65
2021/09/16 00:54:52;;;;;;;;;;;16.40;97.40;;;;;;5012180;28;20297;-66
2021/09/16 00:57:20;;;;;;;;;;;16.40;97.30;;;;;;5012600;28;19926;-65
2021/09/16 00:59:46;;;;;;;;;;;16.40;97.30;;;;;;5012438;28;20296;-65
2021/09/16 01:02:12;;;;;;;;;;;16.40;97.30;;;;;;5011835;28;19925;-64
2021/09/16 01:04:37;;;;;;;;;;;16.40;97.30;;;;;;5012132;28;19925;-65
2021/09/16 01:07:03;;;;;;;;;;;16.40;97.30;;;;;;5011863;28;19929;-64
2021/09/16 01:09:30;;;;;;;;;;;16.40;97.20;;;;;;5011969;28;19924;-66
2021/09/16 01:11:56;;;;;;;;;;;16.40;97.30;;;;;;5012439;28;20369;-65
2021/09/16 01:14:25;;;;;;;;;;;16.40;97.20;;;;;;5011665;28;19952;-66
2021/09/16 01:16:51;;;;;;;;;;;16.40;97.20;;;;;;5012046;28;19921;-65
2021/09/16 01:19:17;;;;;;;;;;;16.40;97.20;;;;;;5011859;28;19983;-65
2021/09/16 01:21:43;;;;;;;;;;;16.40;97.20;;;;;;5012192;28;19975;-65
2021/09/16 01:24:09;;;;;;;;;;;16.40;97.40;;;;;;5011736;28;19917;-66
2021/09/16 01:26:34;;;;;;;;;;;16.30;97.10;;;;;;5015588;28;19947;-65
2021/09/16 01:29:00;;;;;;;;;;;16.40;97.10;;;;;;5014755;28;19918;-73
2021/09/16 01:31:32;;;;;;;;;;;16.30;97.10;;;;;;5016230;28;19921;-67
2021/09/16 01:34:01;;;;;;;;;;;16.30;97.10;;;;;;5014668;28;20002;-65
2021/09/16 01:36:26;;;;;;;;;;;16.30;97.10;;;;;;5014068;28;19914;-69
2021/09/16 01:38:51;;;;;;;;;;;16.30;97.10;;;;;;5015039;28;20263;-65
2021/09/16 01:41:17;;;;;;;;;;;16.30;97.00;;;;;;5013928;28;19921;-73
2021/09/16 01:43:42;;;;;;;;;;;16.30;97.10;;;;;;5014252;28;19918;-63
2021/09/16 01:46:08;;;;;;;;;;;16.30;97.00;;;;;;5014580;28;19917;-66
2021/09/16 01:48:33;;;;;;;;;;;16.30;97.00;;;;;;5014241;28;19918;-67
2021/09/16 01:50:59;;;;;;;;;;;16.30;96.90;;;;;;5014149;28;20350;-65
2021/09/16 01:53:24;;;;;;;;;;;16.20;96.80;;;;;;5013762;28;19985;-66
2021/09/16 01:55:50;;;;;;;;;;;16.10;96.70;;;;;;5011757;28;20266;-66
2021/09/16 01:58:16;;;;;;;;;;;16.10;96.70;;;;;;5012471;28;20196;-66
2021/09/16 02:00:41;;;;;;;;;;;16.10;96.80;;;;;;5015366;28;19918;-65
2021/09/16 02:03:07;;;;;;;;;;;16.10;96.90;;;;;;4997646;28;19933;-66
2021/09/16 02:05:32;;;;;;;;;;;16.10;96.90;;;;;;5014926;28;20004;-65
2021/09/16 02:07:58;;;;;;;;;;;16.10;96.90;;;;;;5014889;28;19975;-65
2021/09/16 02:10:23;;;;;;;;;;;16.10;96.90;;;;;;5015417;28;19937;-66
2021/09/16 02:12:49;;;;;;;;;;;16.10;96.90;;;;;;5014681;28;19924;-65
2021/09/16 02:15:14;;;;;;;;;;;16.10;96.90;;;;;;5015108;28;19917;-65
2021/09/16 02:17:40;;;;;;;;;;;16.00;96.80;;;;;;5015479;28;19918;-66
2021/09/16 02:20:05;;;;;;;;;;;16.00;96.80;;;;;;5034781;28;20281;-65
2021/09/16 02:22:31;;;;;;;;;;;16.00;96.70;;;;;;5034830;28;19929;-65
2021/09/16 02:24:56;;;;;;;;;;;16.00;96.70;;;;;;5016407;28;19924;-65
2021/09/16 02:27:22;;;;;;;;;;;16.00;96.70;;;;;;5034668;28;19924;-64
2021/09/16 02:29:47;;;;;;;;;;;15.90;96.60;;;;;;5034089;28;19917;-65
2021/09/16 02:32:13;;;;;;;;;;;15.90;96.50;;;;;;5034928;28;19924;-65
2021/09/16 02:34:39;;;;;;;;;;;15.90;96.50;;;;;;5033972;28;20002;-65
2021/09/16 02:37:04;;;;;;;;;;;15.90;96.50;;;;;;5034724;28;19917;-65
2021/09/16 02:39:30;;;;;;;;;;;15.80;96.40;;;;;;5034012;28;20396;-65
2021/09/16 02:41:55;;;;;;;;;;;15.80;96.50;;;;;;5034371;28;20337;-64
2021/09/16 02:44:21;;;;;;;;;;;15.70;96.40;;;;;;5034161;28;19921;-65
2021/09/16 02:46:47;;;;;;;;;;;15.70;96.40;;;;;;5033653;28;19983;-65
2021/09/16 02:49:12;;;;;;;;;;;15.70;96.40;;;;;;5034393;28;20439;-64
2021/09/16 02:51:38;;;;;;;;;;;15.70;96.30;;;;;;5033952;28;19920;-65
2021/09/16 02:54:03;;;;;;;;;;;15.60;96.30;;;;;;5034383;28;20321;-66
2021/09/16 02:56:29;;;;;;;;;;;15.60;96.10;;;;;;5033609;28;19917;-65
2021/09/16 02:58:54;;;;;;;;;;;15.60;96.20;;;;;;5034190;28;20377;-64
2021/09/16 03:01:20;;;;;;;;;;;15.50;96.20;;;;;;5033916;28;19943;-64
2021/09/16 03:03:45;;;;;;;;;;;15.50;96.30;;;;;;5033494;28;20377;-64
2021/09/16 03:06:11;;;;;;;;;;;15.50;96.30;;;;;;5033889;28;19932;-64
2021/09/16 03:08:36;;;;;;;;;;;15.50;96.20;;;;;;5033555;28;19923;-64
2021/09/16 03:11:02;;;;;;;;;;;15.50;96.20;;;;;;5032534;28;19923;-64
2021/09/16 03:13:27;;;;;;;;;;;15.50;96.20;;;;;;5033365;28;19917;-64
2021/09/16 03:15:53;;;;;;;;;;;15.40;96.10;;;;;;5033506;28;19960;-64
2021/09/16 03:18:18;;;;;;;;;;;15.40;96.10;;;;;;5033120;28;19918;-64
2021/09/16 03:20:44;;;;;;;;;;;15.40;96.10;;;;;;5033700;28;19925;-64
2021/09/16 03:23:09;;;;;;;;;;;15.40;96.20;;;;;;5033518;28;19921;-64
2021/09/16 03:25:35;;;;;;;;;;;15.40;96.10;;;;;;5032814;28;20120;-64
2021/09/16 03:28:00;;;;;;;;;;;15.40;96.10;;;;;;5033543;28;19921;-64
2021/09/16 03:30:26;;;;;;;;;;;15.40;96.10;;;;;;5033145;28;20071;-65
2021/09/16 03:32:51;;;;;;;;;;;15.40;96.00;;;;;;5033455;28;20387;-64
2021/09/16 03:35:17;;;;;;;;;;;15.40;96.00;;;;;;5032667;28;19917;-64
2021/09/16 03:37:42;;;;;;;;;;;15.30;95.90;;;;;;5033360;28;20296;-63
2021/09/16 03:40:08;;;;;;;;;;;15.30;95.90;;;;;;5032840;28;19941;-65
2021/09/16 03:42:35;;;;;;;;;;;15.30;95.90;;;;;;5033259;28;20009;-64
2021/09/16 03:45:00;;;;;;;;;;;15.30;95.90;;;;;;5032422;28;19948;-64
2021/09/16 03:47:26;;;;;;;;;;;15.30;95.90;;;;;;5033163;28;20376;-65
2021/09/16 03:49:51;;;;;;;;;;;15.30;95.80;;;;;;5033095;28;20007;-66
2021/09/16 03:52:17;;;;;;;;;;;15.30;95.80;;;;;;5032753;28;19967;-63
2021/09/16 03:54:42;;;;;;;;;;;15.30;95.90;;;;;;5015103;28;19913;-63
2021/09/16 03:57:08;;;;;;;;;;;15.30;95.80;;;;;;5032401;28;19918;-64
2021/09/16 03:59:34;;;;;;;;;;;15.30;95.70;;;;;;5032892;28;19914;-62
2021/09/16 04:01:59;;;;;;;;;;;15.30;95.80;;;;;;5032276;28;19982;-65
2021/09/16 04:04:25;;;;;;;;;;;15.30;95.70;;;;;;5032650;28;20008;-64
2021/09/16 04:06:50;;;;;;;;;;;15.30;95.60;;;;;;5032590;28;19921;-64
2021/09/16 04:09:16;;;;;;;;;;;15.30;95.70;;;;;;5032404;28;19967;-63
2021/09/16 04:11:41;;;;;;;;;;;17.30;96.10;;;;;;5015066;28;19970;-64
2021/09/16 04:14:07;;;;;;;;;;;15.30;95.60;;;;;;5032169;28;20404;-63
2021/09/16 04:16:33;;;;;;;;;;;15.30;95.60;;;;;;5032180;28;19920;-64
2021/09/16 04:18:58;;;;;;;;;;;15.30;95.40;;;;;;5047420;28;19925;-63
2021/09/16 04:21:24;;;;;;;;;;;15.20;95.40;;;;;;5031858;28;19928;-63
2021/09/16 04:23:49;;;;;;;;;;;15.20;95.40;;;;;;5032026;28;19917;-65
2021/09/16 04:26:15;;;;;;;;;;;15.20;95.40;;;;;;5032001;28;20012;-63
2021/09/16 04:28:41;;;;;;;;;;;15.20;95.40;;;;;;5032339;28;19917;-64
2021/09/16 04:31:06;;;;;;;;;;;15.20;95.30;;;;;;5031868;28;19939;-64
2021/09/16 04:33:32;;;;;;;;;;;15.20;95.20;;;;;;5032285;28;19944;-63
2021/09/16 04:35:58;;;;;;;;;;;15.20;95.20;;;;;;5031440;28;19923;-64
2021/09/16 04:38:23;;;;;;;;;;;15.10;95.20;;;;;;5047522;28;20372;-64
2021/09/16 04:40:49;;;;;;;;;;;15.10;95.20;;;;;;5035054;28;20429;-62
2021/09/16 04:43:15;;;;;;;;;;;15.10;95.30;;;;;;5059161;28;20316;-63
2021/09/16 04:45:40;;;;;;;;;;;15.10;95.20;;;;;;5050299;28;19916;-63
2021/09/16 04:48:06;;;;;;;;;;;15.10;95.10;;;;;;5060276;28;19924;-64
2021/09/16 04:50:31;;;;;;;;;;;15.10;95.10;;;;;;5066439;28;19917;-64
2021/09/16 04:52:57;;;;;;;;;;;15.00;95.10;;;;;;5055281;28;20324;-65
2021/09/16 04:55:22;;;;;;;;;;;15.00;94.90;;;;;;5057127;28;19924;-65
2021/09/16 04:57:48;;;;;;;;;;;15.00;95.00;;;;;;5070608;28;19923;-64
2021/09/16 05:00:13;;;;;;;;;;;15.00;95.30;;;;;;5051690;28;19928;-64
2021/09/16 05:02:39;;;;;;;;;;;15.00;95.10;;;;;;5045033;28;19928;-63
2021/09/16 05:05:05;;;;;;;;;;;15.10;95.10;;;;;;5044086;28;20008;-64
2021/09/16 05:07:31;;;;;;;;;;;15.00;95.00;;;;;;5046977;28;20384;-63
2021/09/16 05:09:56;;;;;;;;;;;15.00;95.00;;;;;;5043353;28;19916;-64
2021/09/16 05:12:22;;;;;;;;;;;15.00;95.10;;;;;;5047477;28;20512;-63
2021/09/16 05:14:47;;;;;;;;;;;15.00;95.10;;;;;;5048218;28;19916;-64
2021/09/16 05:17:13;;;;;;;;;;;15.10;95.10;;;;;;5054908;28;20343;-65
2021/09/16 05:19:38;;;;;;;;;;;15.10;95.10;;;;;;5067367;28;19917;-64
2021/09/16 05:22:04;;;;;;;;;;;15.10;95.10;;;;;;5058607;28;19999;-63
2021/09/16 05:24:30;;;;;;;;;;;15.10;95.00;;;;;;5060088;28;19917;-64
2021/09/16 05:26:55;;;;;;;;;;;15.10;95.00;;;;;;5065502;28;19921;-64
2021/09/16 05:29:21;;;;;;;;;;;15.20;95.10;;;;;;5071195;28;20395;-66
2021/09/16 05:31:46;;;;;;;;;;;15.20;94.90;;;;;;5057201;28;19924;-63
2021/09/16 05:34:12;;;;;;;;;;;15.10;94.80;;;;;;5069959;28;19925;-64
2021/09/16 05:36:37;;;;;;;;;;;15.10;94.90;;;;;;5054648;28;20335;-64
2021/09/16 05:39:04;;;;;;;;;;;15.10;95.00;;;;;;5053841;28;20424;-65
2021/09/16 05:41:30;;;;;;;;;;;15.10;95.00;;;;;;5053506;28;20308;-64
2021/09/16 05:43:56;;;;;;;;;;;15.20;94.90;;;;;;5054279;28;19917;-62
2021/09/16 05:46:21;;;;;;;;;;;15.10;94.90;;;;;;5054438;28;19923;-65
2021/09/16 05:48:47;;;;;;;;;;;15.10;94.80;;;;;;5055283;28;19916;-64
2021/09/16 05:51:12;;;;;;;;;;;15.10;94.90;;;;;;5054848;28;20396;-64
2021/09/16 05:53:38;;;;;;;;;;;15.10;94.90;;;;;;5055272;28;19923;-64
2021/09/16 05:56:04;;;;;;;;;;;15.10;94.90;;;;;;5054704;28;19963;-64
2021/09/16 05:58:29;;;;;;;;;;;15.10;95.00;;;;;;5037118;28;19971;-65
2021/09/16 06:00:55;;;;;;;;;;;15.10;95.00;;;;;;5054503;28;20282;-62
2021/09/16 06:03:20;;;;;;;;;;;15.20;95.00;;;;;;5054011;28;19924;-64
2021/09/16 06:05:46;;;;;;;;;;;15.20;95.00;;;;;;5053184;28;19939;-64
2021/09/16 06:08:11;;;;;;;;;;;15.20;94.90;;;;;;5053304;28;19936;-63
2021/09/16 06:10:37;;;;;;;;;;;15.10;95.00;;;;;;5054653;28;19916;-64
2021/09/16 06:13:02;;;;;;;;;;;15.20;95.00;;;;;;5054354;28;19955;-64
2021/09/16 06:15:28;;;;;;;;;;;15.20;95.00;;;;;;5054444;28;19956;-64
2021/09/16 06:17:53;;;;;;;;;;;15.20;95.00;;;;;;5054129;28;19923;-64
2021/09/16 06:20:19;;;;;;;;;;;15.30;95.00;;;;;;5054759;28;19944;-65
2021/09/16 06:22:46;;;;;;;;;;;15.30;95.10;;;;;;5054745;28;20380;-64
2021/09/16 06:25:13;;;;;;;;;;;15.30;95.10;;;;;;5053824;28;19921;-62
2021/09/16 06:27:39;;;;;;;;;;;15.30;95.00;;;;;;5054447;28;19939;-64
2021/09/16 06:30:04;;;;;;;;;;;15.40;94.90;;;;;;5054022;28;20358;-63
2021/09/16 06:32:32;;;;;;;;;;;15.40;94.90;;;;;;5054423;28;19923;-65
2021/09/16 06:34:57;;;;;;;;;;;15.40;94.90;;;;;;5053675;28;19979;-63
2021/09/16 06:37:23;;;;;;;;;;;15.40;94.90;;;;;;5054356;28;19960;-64
2021/09/16 06:39:48;;;;;;;;;;;15.40;95.10;;;;;;5053808;28;19955;-63
2021/09/16 06:42:14;;;;;;;;;;;15.50;94.90;;;;;;5054279;28;20420;-63
2021/09/16 06:44:39;;;;;;;;;;;15.50;94.90;;;;;;5035687;28;20238;-63
2021/09/16 06:47:05;;;;;;;;;;;15.50;94.80;;;;;;5053746;28;20003;-65
2021/09/16 06:49:36;;;;;;;;;;;15.50;94.80;;;;;;5054262;28;20044;-65
2021/09/16 06:52:01;;;;;;;;;;;15.50;94.80;;;;;;5053882;28;20021;-64
2021/09/16 06:54:27;;;;;;;;;;;15.50;94.80;;;;;;5053899;28;19996;-64
2021/09/16 06:56:52;;;;;;;;;;;15.60;94.80;;;;;;5053657;28;20339;-64
2021/09/16 06:59:18;;;;;;;;;;;15.60;94.90;;;;;;5053916;28;20171;-65
2021/09/16 07:01:44;;;;;;;;;;;15.70;94.90;;;;;;5035818;28;19921;-64
2021/09/16 07:04:09;;;;;;;;;;;15.70;94.80;;;;;;5053960;28;20322;-64
2021/09/16 07:06:35;;;;;;;;;;;15.70;94.70;;;;;;5052769;28;20011;-64
2021/09/16 07:09:00;;;;;;;;;;;15.70;94.80;;;;;;5053939;28;19952;-64
2021/09/16 07:11:26;;;;;;;;;;;15.80;95.00;;;;;;5053614;28;20403;-64
2021/09/16 07:13:51;;;;;;;;;;;15.90;95.10;;;;;;5053258;28;20293;-64
2021/09/16 07:16:17;;;;;;;;;;;16.10;94.90;;;;;;5053261;28;19917;-65
2021/09/16 07:18:42;;;;;;;;;;;16.10;94.70;;;;;;5053062;28;19917;-65
2021/09/16 07:21:08;;;;;;;;;;;16.10;94.60;;;;;;5053523;28;20431;-64
2021/09/16 07:23:34;;;;;;;;;;;16.20;94.80;;;;;;5035307;28;19985;-64
2021/09/16 07:25:59;;;;;;;;;;;16.30;95.30;;;;;;5052926;28;20412;-64
2021/09/16 07:28:25;;;;;;;;;;;16.50;95.20;;;;;;5053274;28;19963;-65
2021/09/16 07:30:51;;;;;;;;;;;16.70;94.80;;;;;;5052951;28;20419;-65
2021/09/16 07:33:16;;;;;;;;;;;16.70;94.60;;;;;;5053228;28;19927;-64
2021/09/16 07:35:42;;;;;;;;;;;16.70;94.50;;;;;;5052449;28;19916;-64
2021/09/16 07:38:07;;;;;;;;;;;16.60;94.40;;;;;;5053167;28;20004;-64
2021/09/16 07:40:33;;;;;;;;;;;16.60;94.20;;;;;;5052764;28;19959;-64
2021/09/16 07:42:58;;;;;;;;;;;16.60;94.10;;;;;;5053010;28;19968;-65
2021/09/16 07:45:24;;;;;;;;;;;16.60;94.10;;;;;;5052293;28;20387;-65
2021/09/16 07:47:49;;;;;;;;;;;16.50;94.10;;;;;;5053036;28;20346;-65
2021/09/16 07:50:15;;;;;;;;;;;16.50;94.00;;;;;;5052942;28;20385;-64
2021/09/16 07:52:40;;;;;;;;;;;16.50;94.10;;;;;;5052483;28;20384;-64
2021/09/16 07:55:06;;;;;;;;;;;16.50;93.60;;;;;;5052346;28;19917;-64
2021/09/16 07:57:32;;;;;;;;;;;16.50;93.80;;;;;;5051680;28;20802;-64
2021/09/16 07:59:57;;;;;;;;;;;16.50;94.00;;;;;;5052853;28;20372;-64
2021/09/16 08:02:23;;;;;;;;;;;16.40;94.00;;;;;;5052230;28;19928;-64
2021/09/16 08:04:48;;;;;;;;;;;16.50;94.20;;;;;;5052213;28;19923;-64
2021/09/16 08:07:14;;;;;;;;;;;16.60;94.40;;;;;;5052163;28;19921;-63
2021/09/16 08:09:39;;;;;;;;;;;16.60;94.20;;;;;;5052695;28;19921;-65
2021/09/16 08:12:05;;;;;;;;;;;16.70;94.10;;;;;;5052184;28;19921;-64
2021/09/16 08:14:31;;;;;;;;;;;16.80;94.10;;;;;;5052252;28;19927;-64
2021/09/16 08:16:57;;;;;;;;;;;16.80;93.60;;;;;;5052318;28;20343;-64
2021/09/16 08:19:23;;;;;;;;;;;16.80;93.90;;;;;;5052038;28;19917;-64
2021/09/16 08:21:48;;;;;;;;;;;16.80;94.40;;;;;;5052190;28;19978;-64
2021/09/16 08:24:14;;;;;;;;;;;17.20;95.00;;;;;;5051910;28;19917;-63
2021/09/16 08:26:39;;;;;;;;;;;17.40;94.50;;;;;;5051882;28;20012;-65
2021/09/16 08:29:05;;;;;;;;;;;17.60;94.00;;;;;;5051562;28;19920;-65
2021/09/16 08:31:30;;;;;;;;;;;17.50;93.30;;;;;;5052014;28;19944;-63
2021/09/16 08:33:56;;;;;;;;;;;17.30;92.60;;;;;;5051503;28;19921;-63
2021/09/16 08:36:22;;;;;;;;;;;17.20;92.70;;;;;;5051666;28;19917;-64
2021/09/16 08:38:47;;;;;;;;;;;17.00;92.80;;;;;;5051926;28;19923;-63
2021/09/16 08:41:13;;;;;;;;;;;16.90;93.10;;;;;;5051492;28;19917;-63
2021/09/16 08:43:39;;;;;;;;;;;16.90;93.30;;;;;;5051723;28;19917;-63
2021/09/16 08:46:05;;;;;;;;;;;17.00;93.70;;;;;;5051084;28;19916;-65
2021/09/16 08:48:31;;;;;;;;;;;17.20;93.90;;;;;;5051593;28;19923;-64
2021/09/16 08:50:56;;;;;;;;;;;17.40;93.80;;;;;;5051056;28;20043;-63
2021/09/16 08:53:27;;;;;;;;;;;17.70;93.90;;;;;;5033352;28;19924;-64
2021/09/16 08:55:53;;;;;;;;;;;18.00;94.00;;;;;;5050461;28;20052;-63
2021/09/16 08:58:19;;;;;;;;;;;18.40;93.90;;;;;;5051537;28;20021;-64
2021/09/16 09:00:45;;;;;;;;;;;18.70;93.80;;;;;;5051315;28;19913;-64
2021/09/16 09:03:11;;;;;;;;;;;19.00;93.20;;;;;;5050883;28;19928;-64
2021/09/16 09:05:37;;;;;;;;;;;19.50;93.60;;;;;;5051300;28;19920;-65
2021/09/16 09:08:04;;;;;;;;;;;20.10;93.30;;;;;;5050716;28;20386;-65
2021/09/16 09:10:44;;;;;;;;;;;20.20;91.70;;;;;;5051168;28;20285;-64
2021/09/16 09:13:18;;;;;;;;;;;20.10;90.80;;;;;;5050691;28;20365;-65
2021/09/16 09:15:45;;;;;;;;;;;19.90;90.00;;;;;;5050725;28;19917;-65
2021/09/16 09:18:14;;;;;;;;;;;19.60;90.00;;;;;;5050749;28;19940;-65
2021/09/16 09:20:58;;;;;;;;;;;19.30;88.90;;;;;;5050996;28;20039;-65
2021/09/16 09:23:24;;;;;;;;;;;19.10;89.40;;;;;;5051013;28;19960;-65
2021/09/16 09:25:50;;;;;;;;;;;18.80;89.50;;;;;;5016577;28;19916;-65
2021/09/16 09:28:24;;;;;;;;;;;18.70;90.10;;;;;;5050660;28;20380;-65
2021/09/16 09:30:50;;;;;;;;;;;18.60;90.00;;;;;;5051040;28;20361;-65
2021/09/16 09:33:15;;;;;;;;;;;18.70;90.10;;;;;;5032406;28;19928;-64
2021/09/16 09:35:42;;;;;;;;;;;18.60;90.10;;;;;;5050487;28;19939;-65
2021/09/16 09:38:34;;;;;;;;;;;18.60;90.10;;;;;;5050356;28;20007;-65
2021/09/16 09:41:01;;;;;;;;;;;18.60;90.10;;;;;;5047006;28;20401;-65
2021/09/16 09:43:27;;;;;;;;;;;19.20;91.30;;;;;;5050659;28;20155;-63
2021/09/16 09:45:56;;;;;;;;;;;19.50;90.70;;;;;;5050353;28;20380;-65
2021/09/16 09:48:22;;;;;;;;;;;19.70;90.40;;;;;;5050244;28;19917;-64
2021/09/16 09:50:50;;;;;;;;;;;19.70;89.00;;;;;;5050826;28;19921;-65
2021/09/16 09:53:15;;;;;;;;;;;19.70;87.70;;;;;;5050546;28;19917;-65
2021/09/16 09:55:41;;;;;;;;;;;19.50;87.40;;;;;;5050567;28;19917;-65
2021/09/16 09:58:07;;;;;;;;;;;19.40;87.30;;;;;;5050074;28;19924;-64
2021/09/16 10:00:33;;;;;;;;;;;19.30;87.30;;;;;;5032662;28;20259;-65
2021/09/16 10:03:00;;;;;;;;;;;19.40;88.10;;;;;;5050521;28;19944;-63
2021/09/16 10:05:27;;;;;;;;;;;19.50;88.80;;;;;;5049852;28;20011;-65
2021/09/16 10:07:53;;;;;;;;;;;19.70;87.90;;;;;;5050551;28;19917;-64
2021/09/16 10:10:19;;;;;;;;;;;19.90;88.40;;;;;;5050363;28;19959;-64
2021/09/16 10:12:46;;;;;;;;;;;20.20;88.20;;;;;;5050727;28;19956;-64
2021/09/16 10:15:13;;;;;;;;;;;20.40;87.20;;;;;;5049733;28;20062;-65
2021/09/16 10:17:39;;;;;;;;;;;20.40;85.40;;;;;;5050568;28;19924;-64
2021/09/16 10:20:09;;;;;;;;;;;20.30;85.00;;;;;;5051819;28;19924;-65
2021/09/16 10:22:35;;;;;;;;;;;20.10;83.90;;;;;;5054073;28;20002;-64
2021/09/16 10:25:00;;;;;;;;;;;19.90;83.70;;;;;;5053306;28;19913;-64
2021/09/16 10:27:28;;;;;;;;;;;19.80;84.10;;;;;;5054077;28;20028;-65
2021/09/16 10:29:53;;;;;;;;;;;19.70;84.20;;;;;;5035868;28;19916;-65
2021/09/16 10:32:19;;;;;;;;;;;19.70;84.70;;;;;;5054144;28;20023;-64
2021/09/16 10:34:44;;;;;;;;;;;19.80;85.40;;;;;;5035876;28;19917;-65
2021/09/16 10:37:11;;;;;;;;;;;19.90;85.10;;;;;;5053658;28;19917;-64
2021/09/16 10:39:37;;;;;;;;;;;20.00;84.80;;;;;;5036111;28;20011;-63
2021/09/16 10:42:03;;;;;;;;;;;20.00;84.50;;;;;;5053411;28;20007;-64
2021/09/16 10:44:28;;;;;;;;;;;20.00;82.80;;;;;;5053598;28;19944;-65
2021/09/16 10:47:00;;;;;;;;;;;19.80;82.90;;;;;;5053089;28;19921;-65
2021/09/16 10:49:28;;;;;;;;;;;19.70;83.70;;;;;;5053880;28;19943;-64
2021/09/16 10:51:55;;;;;;;;;;;19.90;84.90;;;;;;5053274;28;20324;-64
2021/09/16 10:54:27;;;;;;;;;;;20.10;83.80;;;;;;5053285;28;20332;-65
2021/09/16 10:57:21;;;;;;;;;;;20.10;82.50;;;;;;5052606;28;19916;-64
2021/09/16 10:59:47;;;;;;;;;;;19.90;81.50;;;;;;5053394;28;20020;-64
2021/09/16 11:02:22;;;;;;;;;;;19.70;81.60;;;;;;5052795;28;19999;-64
2021/09/16 11:04:53;;;;;;;;;;;19.60;82.00;;;;;;5052851;28;19963;-64
2021/09/16 11:07:34;;;;;;;;;;;19.50;82.70;;;;;;5035484;28;20085;-63
2021/09/16 11:10:15;;;;;;;;;;;19.50;83.00;;;;;;5035476;28;19920;-65
2021/09/16 11:12:42;;;;;;;;;;;19.70;83.50;;;;;;5052878;28;20266;-65
2021/09/16 11:15:11;;;;;;;;;;;20.00;83.70;;;;;;5052513;28;19923;-64
2021/09/16 11:17:40;;;;;;;;;;;20.30;84.00;;;;;;5053038;28;20016;-64
2021/09/16 11:20:07;;;;;;;;;;;20.70;84.20;;;;;;5053399;28;19947;-64
2021/09/16 11:22:32;;;;;;;;;;;21.10;82.40;;;;;;5052766;28;19944;-64
2021/09/16 11:24:58;;;;;;;;;;;21.20;80.90;;;;;;5052798;28;20377;-64
2021/09/16 11:27:25;;;;;;;;;;;21.20;79.90;;;;;;5052816;28;19925;-64
2021/09/16 11:29:51;;;;;;;;;;;21.10;79.20;;;;;;5052856;28;19921;-64
2021/09/16 11:32:16;;;;;;;;;;;21.00;79.60;;;;;;5051409;28;20313;-65
2021/09/16 11:34:52;;;;;;;;;;;21.20;79.60;;;;;;5052763;28;19924;-65
2021/09/16 11:37:19;;;;;;;;;;;21.10;78.30;;;;;;5052626;28;19962;-64
2021/09/16 11:39:59;;;;;;;;;;;21.10;78.60;;;;;;5052858;28;19952;-65
2021/09/16 11:42:25;;;;;;;;;;;21.10;78.80;;;;;;5052126;28;19928;-64
2021/09/16 11:45:01;;;;;;;;;;;21.00;78.00;;;;;;5052606;28;19917;-65
2021/09/16 11:47:27;;;;;;;;;;;20.90;76.80;;;;;;5052357;28;19966;-64
2021/09/16 11:49:53;;;;;;;;;;;20.70;76.90;;;;;;5052843;28;19917;-64
2021/09/16 11:52:20;;;;;;;;;;;20.40;76.70;;;;;;5052272;28;19927;-63
2021/09/16 11:55:02;;;;;;;;;;;20.30;77.80;;;;;;5052293;28;19916;-65
2021/09/16 11:57:28;;;;;;;;;;;20.40;77.90;;;;;;5052190;28;19970;-65
2021/09/16 11:59:53;;;;;;;;;;;20.20;76.70;;;;;;5052556;28;20335;-64
2021/09/16 12:02:19;;;;;;;;;;;19.90;76.20;;;;;;5052091;28;19921;-65
2021/09/16 12:04:45;;;;;;;;;;;19.40;77.00;;;;;;5052204;28;19920;-63
2021/09/16 12:07:14;;;;;;;;;;;19.10;78.10;;;;;;5052464;28;19970;-65
2021/09/16 12:09:41;;;;;;;;;;;18.90;79.30;;;;;;5052051;28;19924;-65
2021/09/16 12:12:08;;;;;;;;;;;18.70;80.30;;;;;;5052066;28;19920;-65
2021/09/16 12:14:34;;;;;;;;;;;18.60;81.00;;;;;;5051796;28;19960;-65
2021/09/16 12:17:00;;;;;;;;;;;18.60;82.10;;;;;;5052297;28;19920;-63
2021/09/16 12:19:27;;;;;;;;;;;18.80;83.00;;;;;;5051666;28;19925;-65
2021/09/16 12:21:53;;;;;;;;;;;19.10;83.70;;;;;;5052047;28;19921;-65
2021/09/16 12:24:20;;;;;;;;;;;19.30;83.90;;;;;;5051393;28;19917;-65
2021/09/16 12:26:50;;;;;;;;;;;19.60;84.40;;;;;;5052191;28;19917;-65
2021/09/16 12:29:20;;;;;;;;;;;19.80;82.70;;;;;;5051720;28;19943;-65
2021/09/16 12:31:46;;;;;;;;;;;19.70;82.00;;;;;;5052162;28;19917;-65
2021/09/16 12:34:17;;;;;;;;;;;19.50;81.90;;;;;;5051802;28;19921;-65
2021/09/16 12:36:49;;;;;;;;;;;19.30;81.70;;;;;;5051077;28;19920;-64
2021/09/16 12:39:15;;;;;;;;;;;19.00;81.80;;;;;;5051964;28;19924;-64
2021/09/16 12:41:51;;;;;;;;;;;18.90;82.70;;;;;;5051483;28;19917;-65
2021/09/16 12:44:18;;;;;;;;;;;18.80;83.60;;;;;;5051675;28;19928;-63
2021/09/16 12:46:45;;;;;;;;;;;18.90;84.70;;;;;;5051689;28;20389;-65
2021/09/16 12:49:24;;;;;;;;;;;19.10;85.30;;;;;;5051579;28;20274;-65
2021/09/16 12:51:53;;;;;;;;;;;19.40;85.30;;;;;;5051320;28;19917;-65
2021/09/16 12:54:20;;;;;;;;;;;19.30;83.50;;;;;;5051592;28;19971;-65
2021/09/16 12:56:45;;;;;;;;;;;19.40;83.40;;;;;;5051247;28;19917;-64
2021/09/16 12:59:24;;;;;;;;;;;19.50;84.50;;;;;;5051576;28;20016;-64
2021/09/16 13:02:06;;;;;;;;;;;19.80;85.10;;;;;;5051210;28;19920;-65
2021/09/16 13:04:48;;;;;;;;;;;20.00;84.80;;;;;;5051422;28;19924;-64
2021/09/16 13:07:13;;;;;;;;;;;20.20;83.30;;;;;;5051267;28;20384;-64
2021/09/16 13:09:39;;;;;;;;;;;20.10;83.10;;;;;;5051444;28;20039;-63
2021/09/16 13:12:14;;;;;;;;;;;20.00;82.30;;;;;;5050947;28;20023;-64
2021/09/16 13:14:40;;;;;;;;;;;19.80;82.00;;;;;;5051239;28;19924;-64
2021/09/16 13:17:06;;;;;;;;;;;19.60;82.20;;;;;;5050989;28;19921;-64
2021/09/16 13:19:31;;;;;;;;;;;19.40;82.50;;;;;;5051374;28;19913;-64
2021/09/16 13:21:57;;;;;;;;;;;19.30;82.70;;;;;;5050992;28;20389;-65
2021/09/16 13:24:22;;;;;;;;;;;19.20;83.10;;;;;;5051159;28;20171;-65
2021/09/16 13:26:48;;;;;;;;;;;19.20;83.40;;;;;;5050539;28;19948;-65
2021/09/16 13:29:13;;;;;;;;;;;19.30;83.80;;;;;;5051367;28;19924;-65
2021/09/16 13:31:39;;;;;;;;;;;19.40;83.50;;;;;;5050796;28;19923;-64
2021/09/16 13:34:04;;;;;;;;;;;19.40;83.40;;;;;;5033441;28;19917;-65
2021/09/16 13:36:30;;;;;;;;;;;19.40;83.40;;;;;;5050853;28;19920;-65
2021/09/16 13:38:56;;;;;;;;;;;19.30;83.00;;;;;;5050883;28;19916;-64
2021/09/16 13:41:21;;;;;;;;;;;19.30;82.70;;;;;;5051121;28;19917;-64
2021/09/16 13:43:47;;;;;;;;;;;19.20;82.80;;;;;;5050596;28;20333;-65
2021/09/16 13:46:13;;;;;;;;;;;19.10;83.10;;;;;;5050432;28;19967;-65
2021/09/16 13:48:38;;;;;;;;;;;19.10;83.10;;;;;;5050656;28;20001;-64
2021/09/16 13:51:04;;;;;;;;;;;20.00;84.00;;;;;;5051400;28;20254;-64
2021/09/16 13:53:30;;;;;;;;;;;19.30;83.20;;;;;;5050605;28;19942;-65
2021/09/16 13:55:55;;;;;;;;;;;19.20;82.90;;;;;;5036248;28;20345;-64
2021/09/16 13:58:21;;;;;;;;;;;19.20;82.80;;;;;;5054735;28;20432;-65
2021/09/16 14:00:47;;;;;;;;;;;19.40;82.20;;;;;;5036618;28;19917;-64
2021/09/16 14:03:12;;;;;;;;;;;18.90;82.20;;;;;;5036799;28;20003;-64
2021/09/16 14:05:38;;;;;;;;;;;18.70;82.30;;;;;;5053958;28;20304;-65
2021/09/16 14:08:04;;;;;;;;;;;18.50;82.70;;;;;;5054783;28;19921;-66
2021/09/16 14:10:30;;;;;;;;;;;18.40;83.40;;;;;;5054536;28;19924;-65
2021/09/16 14:12:55;;;;;;;;;;;18.40;84.40;;;;;;5036956;28;19917;-65